Tyonek, AK

4:21 PM AKDT on April 25, 2015 (GMT -0800)
McGahan | | Change Station
CLOSE
Current Station
Personal Weather Station
Location: Nikiski, AK
Elevation: 159 ft
Nearby Weather Stations
Active Advisory: Fire Weather Warning Active Notice: Record Report

Elev 159 ft 60.73 °N, 151.30 °W | Updated 9 seconds ago

Overcast
Overcast
51.3 °F
Feels Like 51.3 °F
N
12.7
Wind Variable Wind from ENE
Gusts 12.7 mph

Today
High -- | Low -- °F
--% Chance of Precip.
Yesterday
High -- | Low -- °F
Precip. -- in
6:15 AM 9:52 PM
Waxing Crescent, 50% visible
Pressure 29.78 in
Visibility 10.0 miles
Clouds Overcast 9500 ft
Dew Point 24 °F
Humidity 35%
Rainfall 0.00 in
Snow Depth Not available.
UV 1.6 out of 12
Pollen Not available.
Air Quality Not available.
Flu Activity Sporadic
METAR PAEN 252353Z 36012KT 10SM OVC095 11/M07 A2977 RMK AO2 SLP083 T01061067 10111 20078 56009

More Conditions Fewer Conditions

Pressure 29.78 in
Visibility 10.0 miles
Clouds Overcast 9500 ft
Dew Point 24 °F
Humidity 35%
Rainfall 0.00 in
Snow Depth Not available.
UV 1.6 out of 12
Pollen Not available.
Air Quality Not available.
Flu Activity Sporadic
METAR PAEN 252353Z 36012KT 10SM OVC095 11/M07 A2977 RMK AO2 SLP083 T01061067 10111 20078 56009

More Conditions Fewer Conditions

10-Day Weather Forecast

Almanac

Astronomy

Apr. 25, 2015 Rise Set
Actual Time
Civil Twilight
Nautical Twilight
Astronomical Twilight
Moon
Length of Visible Light
Length of Day
Tomorrow will be .
, % of the Moon is Illuminated

Today's Extremes

State Highs State Lows

Community

WunderPhotos

Upload Photos

1,816,856 photos uploaded!

WunderBlogs® & News

Nearby

Air Quality

  Air Quality AQ Index Pollutant
Not available.

Snow Depth

Station Depth Elevation

Earthquake Activity

City Distance Mag. Time & Date
Minimum magnitude displayed is 2.5.

Coastal Water Temperatures

Place Temperature

Stations

Nearby Weather Stations

Station Location Temp. Windchill Dew Point Humidity Wind Precip. Elev Updated Type
                   
Fire Weather Warning
Statement as of 4:01 PM AKDT on April 25, 2015

... Red flag warning remains in effect until 10 PM akdt this
evening for low humidity from Talkeetna south...

* location... from Talkeetna south.

* 20 ft winds... variable 5 to 10 mph.

* Relative humidity... 15 to 25 percent.

* Timing... humidity values will approach critical values during
the late afternoon and early evening before recovering by late
evening with loss of daytime heating.

* Temperatures... in mid to upper 50s.

Precautionary/preparedness actions...

A red flag warning means that critical fire weather conditions
are imminent or occurring now... or will shortly. It is directed
toward fire agencies... and through them to the public.